sensor_id;sensor_type;location;lat;lon;timestamp;pressure;altitude;pressure_sealevel;temperature;humidity
62164;BME280;48149;51.132;7.178;2022-07-22T00:01:02;99239.13;;;21.85;100.00
62164;BME280;48149;51.132;7.178;2022-07-22T00:03:28;99239.16;;;21.90;100.00
62164;BME280;48149;51.132;7.178;2022-07-22T00:05:53;99239.41;;;21.99;100.00
62164;BME280;48149;51.132;7.178;2022-07-22T00:08:18;99246.00;;;22.06;100.00
62164;BME280;48149;51.132;7.178;2022-07-22T00:10:44;99239.69;;;21.92;100.00
62164;BME280;48149;51.132;7.178;2022-07-22T00:13:09;99234.94;;;22.38;100.00
62164;BME280;48149;51.132;7.178;2022-07-22T00:15:34;99237.97;;;22.21;100.00
62164;BME280;48149;51.132;7.178;2022-07-22T00:18:00;99232.69;;;22.60;100.00
62164;BME280;48149;51.132;7.178;2022-07-22T00:20:25;99236.75;;;21.84;100.00
62164;BME280;48149;51.132;7.178;2022-07-22T00:22:50;99237.66;;;21.34;100.00
62164;BME280;48149;51.132;7.178;2022-07-22T00:25:16;99243.22;;;21.52;100.00
62164;BME280;48149;51.132;7.178;2022-07-22T00:27:42;99241.38;;;21.22;100.00
62164;BME280;48149;51.132;7.178;2022-07-22T00:30:08;99236.06;;;21.17;100.00
62164;BME280;48149;51.132;7.178;2022-07-22T00:32:34;99240.03;;;21.45;100.00
62164;BME280;48149;51.132;7.178;2022-07-22T00:34:59;99230.69;;;21.38;100.00
62164;BME280;48149;51.132;7.178;2022-07-22T00:37:24;99238.72;;;21.17;100.00
62164;BME280;48149;51.132;7.178;2022-07-22T00:39:50;99239.75;;;21.21;100.00
62164;BME280;48149;51.132;7.178;2022-07-22T00:42:15;99231.47;;;21.58;100.00
62164;BME280;48149;51.132;7.178;2022-07-22T00:44:41;99233.84;;;21.70;100.00
62164;BME280;48149;51.132;7.178;2022-07-22T00:47:07;99236.50;;;21.90;100.00
62164;BME280;48149;51.132;7.178;2022-07-22T00:49:32;99234.69;;;21.40;100.00
62164;BME280;48149;51.132;7.178;2022-07-22T00:51:57;99235.75;;;21.34;100.00
62164;BME280;48149;51.132;7.178;2022-07-22T00:54:22;99229.03;;;21.77;100.00
62164;BME280;48149;51.132;7.178;2022-07-22T00:56:48;99236.28;;;21.41;100.00
62164;BME280;48149;51.132;7.178;2022-07-22T00:59:14;99228.28;;;21.41;100.00
62164;BME280;48149;51.132;7.178;2022-07-22T01:01:39;99234.09;;;21.68;100.00
62164;BME280;48149;51.132;7.178;2022-07-22T01:04:05;99225.53;;;22.02;100.00
62164;BME280;48149;51.132;7.178;2022-07-22T01:06:31;99219.66;;;22.00;100.00
62164;BME280;48149;51.132;7.178;2022-07-22T01:08:57;99231.25;;;21.30;100.00
62164;BME280;48149;51.132;7.178;2022-07-22T01:11:23;99218.91;;;21.84;100.00
62164;BME280;48149;51.132;7.178;2022-07-22T01:13:48;99228.28;;;21.06;100.00
62164;BME280;48149;51.132;7.178;2022-07-22T01:16:14;99223.59;;;22.17;100.00
62164;BME280;48149;51.132;7.178;2022-07-22T01:18:40;99223.00;;;22.30;100.00
62164;BME280;48149;51.132;7.178;2022-07-22T01:21:08;99227.47;;;21.56;100.00
62164;BME280;48149;51.132;7.178;2022-07-22T01:23:33;99218.72;;;22.29;100.00
62164;BME280;48149;51.132;7.178;2022-07-22T01:25:59;99224.25;;;21.74;100.00
62164;BME280;48149;51.132;7.178;2022-07-22T01:28:25;99221.53;;;21.99;100.00
62164;BME280;48149;51.132;7.178;2022-07-22T01:30:50;99211.78;;;22.28;100.00
62164;BME280;48149;51.132;7.178;2022-07-22T01:33:16;99231.50;;;21.38;100.00
62164;BME280;48149;51.132;7.178;2022-07-22T01:35:42;99228.03;;;21.33;100.00
62164;BME280;48149;51.132;7.178;2022-07-22T01:38:07;99221.09;;;21.42;100.00
62164;BME280;48149;51.132;7.178;2022-07-22T01:40:32;99223.25;;;21.24;100.00
62164;BME280;48149;51.132;7.178;2022-07-22T01:42:57;99218.94;;;21.64;100.00
62164;BME280;48149;51.132;7.178;2022-07-22T01:45:23;99221.59;;;21.74;100.00
62164;BME280;48149;51.132;7.178;2022-07-22T01:47:49;99223.16;;;21.80;100.00
62164;BME280;48149;51.132;7.178;2022-07-22T01:50:14;99218.03;;;22.04;100.00
62164;BME280;48149;51.132;7.178;2022-07-22T01:52:40;99220.25;;;21.76;100.00
62164;BME280;48149;51.132;7.178;2022-07-22T01:55:05;99213.16;;;22.21;100.00
62164;BME280;48149;51.132;7.178;2022-07-22T01:57:31;99214.16;;;21.61;100.00
62164;BME280;48149;51.132;7.178;2022-07-22T01:59:56;99215.00;;;21.21;100.00
62164;BME280;48149;51.132;7.178;2022-07-22T02:02:21;99219.47;;;21.61;100.00
62164;BME280;48149;51.132;7.178;2022-07-22T02:04:46;99217.84;;;21.90;100.00
62164;BME280;48149;51.132;7.178;2022-07-22T02:07:12;99206.88;;;21.97;100.00
62164;BME280;48149;51.132;7.178;2022-07-22T02:09:37;99218.19;;;21.13;100.00
62164;BME280;48149;51.132;7.178;2022-07-22T02:12:02;99214.72;;;21.38;100.00
62164;BME280;48149;51.132;7.178;2022-07-22T02:14:28;99215.28;;;21.14;100.00
62164;BME280;48149;51.132;7.178;2022-07-22T02:16:53;99216.59;;;21.22;100.00
62164;BME280;48149;51.132;7.178;2022-07-22T02:19:18;99214.94;;;21.56;100.00
62164;BME280;48149;51.132;7.178;2022-07-22T02:21:43;99207.44;;;21.78;100.00
62164;BME280;48149;51.132;7.178;2022-07-22T02:24:09;99214.97;;;21.06;100.00
62164;BME280;48149;51.132;7.178;2022-07-22T02:26:34;99205.13;;;20.91;100.00
62164;BME280;48149;51.132;7.178;2022-07-22T02:28:59;99206.72;;;21.07;100.00
62164;BME280;48149;51.132;7.178;2022-07-22T02:31:25;99211.00;;;21.39;100.00
62164;BME280;48149;51.132;7.178;2022-07-22T02:33:50;99208.88;;;21.20;100.00
62164;BME280;48149;51.132;7.178;2022-07-22T02:36:17;99212.28;;;20.65;100.00
62164;BME280;48149;51.132;7.178;2022-07-22T02:38:43;99203.94;;;20.27;100.00
62164;BME280;48149;51.132;7.178;2022-07-22T02:41:08;99201.38;;;20.62;100.00
62164;BME280;48149;51.132;7.178;2022-07-22T02:43:34;99202.44;;;21.62;100.00
62164;BME280;48149;51.132;7.178;2022-07-22T02:46:00;99199.47;;;20.37;100.00
62164;BME280;48149;51.132;7.178;2022-07-22T02:48:25;99200.81;;;20.50;100.00
62164;BME280;48149;51.132;7.178;2022-07-22T02:50:50;99200.78;;;20.35;100.00
62164;BME280;48149;51.132;7.178;2022-07-22T02:53:16;99205.69;;;21.13;100.00
62164;BME280;48149;51.132;7.178;2022-07-22T02:55:41;99209.41;;;21.22;100.00
62164;BME280;48149;51.132;7.178;2022-07-22T02:58:07;99211.81;;;21.19;100.00
62164;BME280;48149;51.132;7.178;2022-07-22T03:00:35;99205.94;;;21.32;100.00
62164;BME280;48149;51.132;7.178;2022-07-22T03:03:02;99210.44;;;20.76;100.00
62164;BME280;48149;51.132;7.178;2022-07-22T03:05:28;99216.06;;;21.30;100.00
62164;BME280;48149;51.132;7.178;2022-07-22T03:07:53;99214.97;;;21.06;100.00
62164;BME280;48149;51.132;7.178;2022-07-22T03:10:18;99221.63;;;21.49;100.00
62164;BME280;48149;51.132;7.178;2022-07-22T03:12:44;99222.19;;;21.46;100.00
62164;BME280;48149;51.132;7.178;2022-07-22T03:15:10;99215.13;;;21.95;100.00
62164;BME280;48149;51.132;7.178;2022-07-22T03:17:35;99219.00;;;21.13;100.00
62164;BME280;48149;51.132;7.178;2022-07-22T03:20:10;99219.53;;;21.36;100.00
62164;BME280;48149;51.132;7.178;2022-07-22T03:22:36;99212.56;;;21.55;100.00
62164;BME280;48149;51.132;7.178;2022-07-22T03:25:01;99221.13;;;21.26;100.00
62164;BME280;48149;51.132;7.178;2022-07-22T03:27:28;99221.66;;;21.13;100.00
62164;BME280;48149;51.132;7.178;2022-07-22T03:29:53;99219.00;;;21.28;100.00
62164;BME280;48149;51.132;7.178;2022-07-22T03:32:18;99214.19;;;20.95;100.00
62164;BME280;48149;51.132;7.178;2022-07-22T03:34:44;99208.31;;;21.49;100.00
62164;BME280;48149;51.132;7.178;2022-07-22T03:37:09;99212.59;;;21.19;100.00
62164;BME280;48149;51.132;7.178;2022-07-22T03:39:35;99211.75;;;20.68;100.00
62164;BME280;48149;51.132;7.178;2022-07-22T03:42:00;99215.53;;;21.18;100.00
62164;BME280;48149;51.132;7.178;2022-07-22T03:44:26;99214.69;;;21.53;100.00
62164;BME280;48149;51.132;7.178;2022-07-22T03:46:51;99207.78;;;21.52;100.00
62164;BME280;48149;51.132;7.178;2022-07-22T03:49:16;99211.00;;;21.28;100.00
62164;BME280;48149;51.132;7.178;2022-07-22T03:51:41;99214.13;;;20.65;100.00
62164;BME280;48149;51.132;7.178;2022-07-22T03:54:07;99216.88;;;21.10;100.00
62164;BME280;48149;51.132;7.178;2022-07-22T03:56:32;99214.44;;;21.44;100.00
62164;BME280;48149;51.132;7.178;2022-07-22T03:58:57;99217.94;;;21.19;100.00
62164;BME280;48149;51.132;7.178;2022-07-22T04:01:23;99217.38;;;20.92;100.00
62164;BME280;48149;51.132;7.178;2022-07-22T04:03:48;99219.00;;;21.13;100.00
62164;BME280;48149;51.132;7.178;2022-07-22T04:06:14;99215.34;;;19.70;100.00
62164;BME280;48149;51.132;7.178;2022-07-22T04:08:39;99212.03;;;20.67;100.00
62164;BME280;48149;51.132;7.178;2022-07-22T04:11:04;99205.91;;;20.82;100.00
62164;BME280;48149;51.132;7.178;2022-07-22T04:13:30;99222.38;;;20.68;100.00
62164;BME280;48149;51.132;7.178;2022-07-22T04:15:55;99226.63;;;20.64;100.00
62164;BME280;48149;51.132;7.178;2022-07-22T04:18:21;99218.34;;;20.41;100.00
62164;BME280;48149;51.132;7.178;2022-07-22T04:20:47;99208.56;;;20.87;100.00
62164;BME280;48149;51.132;7.178;2022-07-22T04:23:12;99205.06;;;20.36;100.00
62164;BME280;48149;51.132;7.178;2022-07-22T04:25:38;99214.97;;;20.86;100.00
62164;BME280;48149;51.132;7.178;2022-07-22T04:28:03;99207.22;;;20.69;100.00
62164;BME280;48149;51.132;7.178;2022-07-22T04:30:30;99202.16;;;20.62;100.00
62164;BME280;48149;51.132;7.178;2022-07-22T04:32:56;99206.13;;;20.50;100.00
62164;BME280;48149;51.132;7.178;2022-07-22T04:35:21;99203.56;;;20.03;100.00
62164;BME280;48149;51.132;7.178;2022-07-22T04:37:46;99205.66;;;20.88;100.00
62164;BME280;48149;51.132;7.178;2022-07-22T04:40:12;99202.19;;;21.28;100.00
62164;BME280;48149;51.132;7.178;2022-07-22T04:42:37;99196.06;;;21.38;100.00
62164;BME280;48149;51.132;7.178;2022-07-22T04:45:02;99195.81;;;21.04;100.00
62164;BME280;48149;51.132;7.178;2022-07-22T04:47:28;99201.91;;;20.69;100.00
62164;BME280;48149;51.132;7.178;2022-07-22T04:49:53;99202.38;;;20.46;100.00
62164;BME280;48149;51.132;7.178;2022-07-22T04:52:18;99194.34;;;20.26;100.00
62164;BME280;48149;51.132;7.178;2022-07-22T04:54:44;99198.19;;;20.75;100.00
62164;BME280;48149;51.132;7.178;2022-07-22T04:57:09;99198.41;;;21.64;100.00
62164;BME280;48149;51.132;7.178;2022-07-22T04:59:34;99187.91;;;22.03;100.00
62164;BME280;48149;51.132;7.178;2022-07-22T05:01:59;99197.59;;;20.33;100.00
62164;BME280;48149;51.132;7.178;2022-07-22T05:04:27;99203.00;;;20.88;100.00
62164;BME280;48149;51.132;7.178;2022-07-22T05:06:52;99204.00;;;21.63;100.00
62164;BME280;48149;51.132;7.178;2022-07-22T05:09:17;99207.81;;;21.26;100.00
62164;BME280;48149;51.132;7.178;2022-07-22T05:11:43;99204.88;;;21.28;100.00
62164;BME280;48149;51.132;7.178;2022-07-22T05:14:08;99200.31;;;22.33;100.00
62164;BME280;48149;51.132;7.178;2022-07-22T05:16:35;99206.91;;;22.46;100.00
62164;BME280;48149;51.132;7.178;2022-07-22T05:19:01;99210.59;;;22.01;100.00
62164;BME280;48149;51.132;7.178;2022-07-22T05:21:27;99209.72;;;22.64;100.00
62164;BME280;48149;51.132;7.178;2022-07-22T05:23:52;99209.84;;;21.70;100.00
62164;BME280;48149;51.132;7.178;2022-07-22T05:26:17;99220.31;;;21.31;100.00
62164;BME280;48149;51.132;7.178;2022-07-22T05:28:43;99214.63;;;21.78;100.00
62164;BME280;48149;51.132;7.178;2022-07-22T05:31:08;99212.81;;;21.63;100.00
62164;BME280;48149;51.132;7.178;2022-07-22T05:33:33;99221.34;;;20.69;100.00
62164;BME280;48149;51.132;7.178;2022-07-22T05:35:59;99221.91;;;21.12;100.00
62164;BME280;48149;51.132;7.178;2022-07-22T05:38:24;99225.59;;;20.81;100.00
62164;BME280;48149;51.132;7.178;2022-07-22T05:40:49;99224.19;;;20.43;100.00
62164;BME280;48149;51.132;7.178;2022-07-22T05:43:16;99217.34;;;20.72;100.00
62164;BME280;48149;51.132;7.178;2022-07-22T05:45:41;99226.97;;;21.39;100.00
62164;BME280;48149;51.132;7.178;2022-07-22T05:48:07;99218.44;;;21.01;100.00
62164;BME280;48149;51.132;7.178;2022-07-22T05:50:33;99213.53;;;21.94;100.00
62164;BME280;48149;51.132;7.178;2022-07-22T05:52:59;99209.81;;;22.49;100.00
62164;BME280;48149;51.132;7.178;2022-07-22T05:55:25;99212.50;;;21.80;100.00
62164;BME280;48149;51.132;7.178;2022-07-22T05:57:51;99219.78;;;23.16;100.00
62164;BME280;48149;51.132;7.178;2022-07-22T06:00:16;99199.91;;;23.27;100.00
62164;BME280;48149;51.132;7.178;2022-07-22T06:02:43;99209.41;;;23.44;100.00
62164;BME280;48149;51.132;7.178;2022-07-22T06:05:09;99201.19;;;23.35;100.00
62164;BME280;48149;51.132;7.178;2022-07-22T06:07:34;99202.06;;;22.92;100.00
62164;BME280;48149;51.132;7.178;2022-07-22T06:09:59;99195.22;;;23.14;99.78
62164;BME280;48149;51.132;7.178;2022-07-22T06:12:25;99197.41;;;23.36;100.00
62164;BME280;48149;51.132;7.178;2022-07-22T06:14:50;99194.22;;;23.05;100.00
62164;BME280;48149;51.132;7.178;2022-07-22T06:17:15;99202.72;;;23.70;100.00
62164;BME280;48149;51.132;7.178;2022-07-22T06:19:41;99202.16;;;23.15;100.00
62164;BME280;48149;51.132;7.178;2022-07-22T06:22:07;99198.22;;;23.65;97.73
62164;BME280;48149;51.132;7.178;2022-07-22T06:24:34;99207.16;;;22.44;100.00
62164;BME280;48149;51.132;7.178;2022-07-22T06:27:00;99202.22;;;23.05;100.00
62164;BME280;48149;51.132;7.178;2022-07-22T06:29:25;99205.19;;;23.32;100.00
62164;BME280;48149;51.132;7.178;2022-07-22T06:31:50;99201.53;;;23.57;99.29
62164;BME280;48149;51.132;7.178;2022-07-22T06:34:15;99206.94;;;23.76;100.00
62164;BME280;48149;51.132;7.178;2022-07-22T06:36:41;99208.00;;;23.75;99.03
62164;BME280;48149;51.132;7.178;2022-07-22T06:39:06;99204.66;;;24.12;96.54
62164;BME280;48149;51.132;7.178;2022-07-22T06:41:31;99207.28;;;23.41;100.00
62164;BME280;48149;51.132;7.178;2022-07-22T06:43:57;99204.25;;;24.23;100.00
62164;BME280;48149;51.132;7.178;2022-07-22T06:46:22;99211.94;;;23.25;100.00
62164;BME280;48149;51.132;7.178;2022-07-22T06:48:47;99211.56;;;23.36;100.00
62164;BME280;48149;51.132;7.178;2022-07-22T06:51:12;99207.69;;;23.76;98.05
62164;BME280;48149;51.132;7.178;2022-07-22T06:53:38;99215.88;;;23.61;98.11
62164;BME280;48149;51.132;7.178;2022-07-22T06:56:03;99210.50;;;23.09;98.70
62164;BME280;48149;51.132;7.178;2022-07-22T06:58:30;99195.41;;;22.89;100.00
62164;BME280;48149;51.132;7.178;2022-07-22T07:00:55;99202.00;;;23.30;100.00
62164;BME280;48149;51.132;7.178;2022-07-22T07:03:21;99204.22;;;22.90;100.00
62164;BME280;48149;51.132;7.178;2022-07-22T07:05:48;99200.19;;;22.92;99.65
62164;BME280;48149;51.132;7.178;2022-07-22T07:08:13;99196.91;;;22.71;100.00
62164;BME280;48149;51.132;7.178;2022-07-22T07:10:40;99205.00;;;23.24;100.00
62164;BME280;48149;51.132;7.178;2022-07-22T07:13:06;99201.03;;;23.21;100.00
62164;BME280;48149;51.132;7.178;2022-07-22T07:15:32;99199.84;;;23.32;99.79
62164;BME280;48149;51.132;7.178;2022-07-22T07:17:59;99192.19;;;22.92;100.00
62164;BME280;48149;51.132;7.178;2022-07-22T07:20:25;99188.50;;;23.51;99.62
62164;BME280;48149;51.132;7.178;2022-07-22T07:22:50;99194.84;;;23.55;97.25
62164;BME280;48149;51.132;7.178;2022-07-22T07:25:16;99192.47;;;23.53;98.50
62164;BME280;48149;51.132;7.178;2022-07-22T07:27:41;99186.75;;;24.07;94.99
62164;BME280;48149;51.132;7.178;2022-07-22T07:30:07;99185.25;;;24.01;94.29
62164;BME280;48149;51.132;7.178;2022-07-22T07:32:34;99188.06;;;24.10;92.07
62164;BME280;48149;51.132;7.178;2022-07-22T07:35:01;99193.00;;;23.79;95.44
62164;BME280;48149;51.132;7.178;2022-07-22T07:37:26;99186.09;;;24.20;92.67
62164;BME280;48149;51.132;7.178;2022-07-22T07:39:52;99189.94;;;24.09;90.52
62164;BME280;48149;51.132;7.178;2022-07-22T07:42:17;99188.31;;;24.13;91.89
62164;BME280;48149;51.132;7.178;2022-07-22T07:44:43;99199.31;;;23.88;94.87
62164;BME280;48149;51.132;7.178;2022-07-22T07:47:08;99192.34;;;23.87;93.20
62164;BME280;48149;51.132;7.178;2022-07-22T07:49:33;99198.00;;;23.85;96.57
62164;BME280;48149;51.132;7.178;2022-07-22T07:52:02;99191.28;;;24.30;93.34
62164;BME280;48149;51.132;7.178;2022-07-22T07:54:27;99191.28;;;24.30;91.68
62164;BME280;48149;51.132;7.178;2022-07-22T07:57:01;99184.19;;;24.39;88.63
62164;BME280;48149;51.132;7.178;2022-07-22T07:59:27;99186.63;;;25.11;87.99
62164;BME280;48149;51.132;7.178;2022-07-22T08:01:52;99187.09;;;24.99;90.21
62164;BME280;48149;51.132;7.178;2022-07-22T08:04:17;99182.13;;;25.06;88.39
62164;BME280;48149;51.132;7.178;2022-07-22T08:06:43;99179.50;;;24.50;90.68
62164;BME280;48149;51.132;7.178;2022-07-22T08:09:08;99175.09;;;25.56;86.91
62164;BME280;48149;51.132;7.178;2022-07-22T08:11:33;99176.78;;;23.47;95.54
62164;BME280;48149;51.132;7.178;2022-07-22T08:14:01;99174.53;;;25.27;87.41
62164;BME280;48149;51.132;7.178;2022-07-22T08:16:26;99182.19;;;24.50;93.18
62164;BME280;48149;51.132;7.178;2022-07-22T08:18:51;99189.97;;;25.48;85.71
62164;BME280;48149;51.132;7.178;2022-07-22T08:21:17;99186.81;;;25.74;81.62
62164;BME280;48149;51.132;7.178;2022-07-22T08:23:42;99190.13;;;24.92;88.32
62164;BME280;48149;51.132;7.178;2022-07-22T08:26:07;99187.50;;;25.79;81.62
62164;BME280;48149;51.132;7.178;2022-07-22T08:28:34;99191.78;;;25.80;80.09
62164;BME280;48149;51.132;7.178;2022-07-22T08:31:01;99185.22;;;26.00;78.66
62164;BME280;48149;51.132;7.178;2022-07-22T08:33:26;99189.00;;;25.85;79.85
62164;BME280;48149;51.132;7.178;2022-07-22T08:35:52;99187.28;;;25.03;85.90
62164;BME280;48149;51.132;7.178;2022-07-22T08:38:17;99183.44;;;25.55;81.57
62164;BME280;48149;51.132;7.178;2022-07-22T08:40:42;99184.06;;;25.33;85.32
62164;BME280;48149;51.132;7.178;2022-07-22T08:43:14;99183.03;;;25.88;78.89
62164;BME280;48149;51.132;7.178;2022-07-22T08:45:40;99178.69;;;25.65;81.97
62164;BME280;48149;51.132;7.178;2022-07-22T08:48:05;99189.53;;;25.41;80.14
62164;BME280;48149;51.132;7.178;2022-07-22T08:50:31;99191.91;;;25.29;80.26
62164;BME280;48149;51.132;7.178;2022-07-22T08:52:57;99187.38;;;24.79;84.91
62164;BME280;48149;51.132;7.178;2022-07-22T08:55:28;99186.94;;;24.34;87.42
62164;BME280;48149;51.132;7.178;2022-07-22T08:57:54;99193.59;;;24.74;88.27
62164;BME280;48149;51.132;7.178;2022-07-22T09:00:20;99190.44;;;24.54;89.79
62164;BME280;48149;51.132;7.178;2022-07-22T09:02:46;99191.22;;;23.69;93.92
62164;BME280;48149;51.132;7.178;2022-07-22T09:05:12;99187.03;;;24.29;89.42
62164;BME280;48149;51.132;7.178;2022-07-22T09:07:40;99190.41;;;23.92;91.81
62164;BME280;48149;51.132;7.178;2022-07-22T09:10:13;99187.63;;;24.26;87.88
62164;BME280;48149;51.132;7.178;2022-07-22T09:12:52;99187.94;;;25.27;84.07
62164;BME280;48149;51.132;7.178;2022-07-22T09:15:31;99188.91;;;24.66;83.17
62164;BME280;48149;51.132;7.178;2022-07-22T09:17:57;99193.59;;;25.25;78.07
62164;BME280;48149;51.132;7.178;2022-07-22T09:20:27;99191.78;;;25.80;78.68
62164;BME280;48149;51.132;7.178;2022-07-22T09:22:53;99183.38;;;25.27;81.15
62164;BME280;48149;51.132;7.178;2022-07-22T09:25:29;99188.69;;;25.14;83.49
62164;BME280;48149;51.132;7.178;2022-07-22T09:28:09;99189.09;;;25.07;83.04
62164;BME280;48149;51.132;7.178;2022-07-22T09:30:40;99184.41;;;24.43;82.98
62164;BME280;48149;51.132;7.178;2022-07-22T09:33:06;99189.66;;;25.36;84.52
62164;BME280;48149;51.132;7.178;2022-07-22T09:35:32;99190.84;;;24.98;82.08
62164;BME280;48149;51.132;7.178;2022-07-22T09:37:59;99189.22;;;25.62;78.65
62164;BME280;48149;51.132;7.178;2022-07-22T09:40:32;99186.41;;;26.08;75.80
62164;BME280;48149;51.132;7.178;2022-07-22T09:43:01;99199.38;;;25.32;78.39
62164;BME280;48149;51.132;7.178;2022-07-22T09:45:28;99202.06;;;25.46;79.88
62164;BME280;48149;51.132;7.178;2022-07-22T09:47:55;99193.44;;;25.03;78.75
62164;BME280;48149;51.132;7.178;2022-07-22T09:50:25;99204.19;;;25.63;81.11
62164;BME280;48149;51.132;7.178;2022-07-22T09:52:51;99197.19;;;25.48;80.11
62164;BME280;48149;51.132;7.178;2022-07-22T09:55:18;99195.03;;;25.04;83.42
62164;BME280;48149;51.132;7.178;2022-07-22T09:57:44;99201.63;;;24.56;88.10
62164;BME280;48149;51.132;7.178;2022-07-22T10:00:11;99191.50;;;24.15;87.57
62164;BME280;48149;51.132;7.178;2022-07-22T10:02:39;99191.44;;;24.39;86.43
62164;BME280;48149;51.132;7.178;2022-07-22T10:05:05;99190.50;;;24.67;85.17
62164;BME280;48149;51.132;7.178;2022-07-22T10:07:30;99192.59;;;24.89;80.59
62164;BME280;48149;51.132;7.178;2022-07-22T10:09:56;99187.16;;;24.94;82.37
62164;BME280;48149;51.132;7.178;2022-07-22T10:12:22;99177.19;;;24.43;90.03
62164;BME280;48149;51.132;7.178;2022-07-22T10:14:47;99177.34;;;23.67;96.98
62164;BME280;48149;51.132;7.178;2022-07-22T10:17:13;99177.34;;;23.91;91.81
62164;BME280;48149;51.132;7.178;2022-07-22T10:19:39;99175.28;;;22.68;98.82
62164;BME280;48149;51.132;7.178;2022-07-22T10:22:06;99171.88;;;24.01;92.85
62164;BME280;48149;51.132;7.178;2022-07-22T10:25:01;99165.09;;;24.27;93.97
62164;BME280;48149;51.132;7.178;2022-07-22T10:30:10;99159.75;;;24.27;90.38
62164;BME280;48149;51.132;7.178;2022-07-22T10:32:36;99165.91;;;23.04;100.00
62164;BME280;48149;51.132;7.178;2022-07-22T10:40:14;99149.84;;;24.47;87.22
62164;BME280;48149;51.132;7.178;2022-07-22T10:48:13;99159.88;;;24.92;87.07
62164;BME280;48149;51.132;7.178;2022-07-22T10:55:34;99155.47;;;25.28;85.46
62164;BME280;48149;51.132;7.178;2022-07-22T10:58:00;99158.19;;;24.77;87.73
62164;BME280;48149;51.132;7.178;2022-07-22T11:00:26;99152.47;;;25.62;84.83
62164;BME280;48149;51.132;7.178;2022-07-22T11:02:51;99155.13;;;26.03;79.44
62164;BME280;48149;51.132;7.178;2022-07-22T11:05:24;99154.16;;;25.72;82.81
62164;BME280;48149;51.132;7.178;2022-07-22T11:07:50;99145.28;;;25.98;76.88
62164;BME280;48149;51.132;7.178;2022-07-22T11:10:17;99144.47;;;26.12;77.67
62164;BME280;48149;51.132;7.178;2022-07-22T11:12:42;99152.72;;;26.51;75.52
62164;BME280;48149;51.132;7.178;2022-07-22T11:15:08;99152.03;;;26.81;74.92
62164;BME280;48149;51.132;7.178;2022-07-22T11:17:34;99156.91;;;25.67;79.47
62164;BME280;48149;51.132;7.178;2022-07-22T11:20:02;99155.25;;;25.84;77.53
62164;BME280;48149;51.132;7.178;2022-07-22T11:22:28;99147.13;;;27.76;63.76
62164;BME280;48149;51.132;7.178;2022-07-22T11:24:54;99149.25;;;28.99;59.96
62164;BME280;48149;51.132;7.178;2022-07-22T11:27:19;99160.91;;;29.75;58.58
62164;BME280;48149;51.132;7.178;2022-07-22T11:29:49;99152.16;;;29.70;55.30
62164;BME280;48149;51.132;7.178;2022-07-22T11:32:15;99141.19;;;30.04;54.86
62164;BME280;48149;51.132;7.178;2022-07-22T11:34:42;99129.31;;;28.23;56.33
62164;BME280;48149;51.132;7.178;2022-07-22T11:37:10;99140.09;;;28.66;62.99
62164;BME280;48149;51.132;7.178;2022-07-22T11:39:35;99133.31;;;30.73;52.95
62164;BME280;48149;51.132;7.178;2022-07-22T11:42:00;99128.84;;;30.03;52.72
62164;BME280;48149;51.132;7.178;2022-07-22T11:44:27;99126.72;;;30.29;55.14
62164;BME280;48149;51.132;7.178;2022-07-22T11:46:53;99119.69;;;30.16;56.86
62164;BME280;48149;51.132;7.178;2022-07-22T11:49:23;99123.84;;;30.67;52.99
62164;BME280;48149;51.132;7.178;2022-07-22T11:51:48;99121.69;;;29.69;53.67
62164;BME280;48149;51.132;7.178;2022-07-22T11:54:15;99120.22;;;27.76;57.29
62164;BME280;48149;51.132;7.178;2022-07-22T11:56:40;99121.19;;;30.05;55.07
62164;BME280;48149;51.132;7.178;2022-07-22T11:59:06;99120.19;;;30.84;51.46
62164;BME280;48149;51.132;7.178;2022-07-22T12:01:35;99115.50;;;28.84;56.09
62164;BME280;48149;51.132;7.178;2022-07-22T12:04:09;99117.28;;;29.64;52.42
62164;BME280;48149;51.132;7.178;2022-07-22T12:06:35;99120.47;;;29.29;56.06
62164;BME280;48149;51.132;7.178;2022-07-22T12:09:21;99114.97;;;30.04;51.86
62164;BME280;48149;51.132;7.178;2022-07-22T12:11:48;99111.84;;;32.34;46.15
62164;BME280;48149;51.132;7.178;2022-07-22T12:14:14;99099.44;;;34.21;41.59
62164;BME280;48149;51.132;7.178;2022-07-22T12:16:40;99097.16;;;37.08;32.76
62164;BME280;48149;51.132;7.178;2022-07-22T12:19:07;99093.13;;;36.99;34.96
62164;BME280;48149;51.132;7.178;2022-07-22T12:21:33;99089.47;;;36.80;34.42
62164;BME280;48149;51.132;7.178;2022-07-22T12:26:47;99081.75;;;35.37;35.14
62164;BME280;48149;51.132;7.178;2022-07-22T12:29:19;99085.50;;;31.55;42.80
62164;BME280;48149;51.132;7.178;2022-07-22T12:31:49;99080.34;;;28.03;52.94
62164;BME280;48149;51.132;7.178;2022-07-22T12:34:15;99085.56;;;29.61;49.94
62164;BME280;48149;51.132;7.178;2022-07-22T12:36:45;99076.28;;;31.96;45.03
62164;BME280;48149;51.132;7.178;2022-07-22T12:39:11;99074.16;;;31.77;45.86
62164;BME280;48149;51.132;7.178;2022-07-22T12:41:43;99077.13;;;34.92;40.67
62164;BME280;48149;51.132;7.178;2022-07-22T12:44:14;99068.25;;;34.53;39.82
62164;BME280;48149;51.132;7.178;2022-07-22T12:46:47;99066.25;;;34.50;38.72
62164;BME280;48149;51.132;7.178;2022-07-22T12:49:15;99074.22;;;33.35;40.07
62164;BME280;48149;51.132;7.178;2022-07-22T12:51:40;99061.69;;;32.40;40.61
62164;BME280;48149;51.132;7.178;2022-07-22T12:54:05;99063.88;;;32.07;42.96
62164;BME280;48149;51.132;7.178;2022-07-22T12:56:31;99069.34;;;31.34;44.38
62164;BME280;48149;51.132;7.178;2022-07-22T12:58:58;99066.81;;;34.02;37.78
62164;BME280;48149;51.132;7.178;2022-07-22T13:01:25;99066.28;;;35.67;33.15
62164;BME280;48149;51.132;7.178;2022-07-22T13:03:50;99054.78;;;35.28;35.19
62164;BME280;48149;51.132;7.178;2022-07-22T13:06:15;99063.88;;;35.36;34.33
62164;BME280;48149;51.132;7.178;2022-07-22T13:08:40;99052.97;;;32.74;40.32
62164;BME280;48149;51.132;7.178;2022-07-22T13:11:06;99053.41;;;34.28;39.17